sensor_id;sensor_type;location;lat;lon;timestamp;P1;durP1;ratioP1;P2;durP2;ratioP2
17570;SDS011;8903;52.220;20.978;2024-03-25T00:02:10;6.17;;;5.20;;
17570;SDS011;8903;52.220;20.978;2024-03-25T00:04:36;6.87;;;6.17;;
17570;SDS011;8903;52.220;20.978;2024-03-25T00:07:02;6.87;;;5.40;;
17570;SDS011;8903;52.220;20.978;2024-03-25T00:09:28;8.20;;;5.77;;
17570;SDS011;8903;52.220;20.978;2024-03-25T00:11:54;8.37;;;6.50;;
17570;SDS011;8903;52.220;20.978;2024-03-25T00:14:22;8.77;;;6.03;;
17570;SDS011;8903;52.220;20.978;2024-03-25T00:16:56;8.53;;;6.30;;
17570;SDS011;8903;52.220;20.978;2024-03-25T00:19:25;8.87;;;6.27;;
17570;SDS011;8903;52.220;20.978;2024-03-25T00:21:51;11.97;;;6.57;;
17570;SDS011;8903;52.220;20.978;2024-03-25T00:24:20;9.60;;;7.57;;
17570;SDS011;8903;52.220;20.978;2024-03-25T00:26:46;13.47;;;8.50;;
17570;SDS011;8903;52.220;20.978;2024-03-25T00:29:12;8.43;;;7.40;;
17570;SDS011;8903;52.220;20.978;2024-03-25T00:31:42;11.10;;;9.27;;
17570;SDS011;8903;52.220;20.978;2024-03-25T00:34:08;9.73;;;8.33;;
17570;SDS011;8903;52.220;20.978;2024-03-25T00:36:37;12.27;;;8.90;;
17570;SDS011;8903;52.220;20.978;2024-03-25T00:39:06;15.60;;;10.47;;
17570;SDS011;8903;52.220;20.978;2024-03-25T00:41:32;12.37;;;9.37;;
17570;SDS011;8903;52.220;20.978;2024-03-25T00:43:59;13.83;;;9.50;;
17570;SDS011;8903;52.220;20.978;2024-03-25T00:46:24;14.30;;;10.33;;
17570;SDS011;8903;52.220;20.978;2024-03-25T00:48:51;13.40;;;10.20;;
17570;SDS011;8903;52.220;20.978;2024-03-25T00:51:17;16.80;;;10.73;;
17570;SDS011;8903;52.220;20.978;2024-03-25T00:53:45;16.77;;;10.93;;
17570;SDS011;8903;52.220;20.978;2024-03-25T00:56:12;16.07;;;11.73;;
17570;SDS011;8903;52.220;20.978;2024-03-25T00:58:44;27.13;;;16.57;;
17570;SDS011;8903;52.220;20.978;2024-03-25T01:01:13;19.83;;;13.37;;
17570;SDS011;8903;52.220;20.978;2024-03-25T01:03:39;17.27;;;11.70;;
17570;SDS011;8903;52.220;20.978;2024-03-25T01:06:05;18.93;;;11.97;;
17570;SDS011;8903;52.220;20.978;2024-03-25T01:08:34;17.63;;;11.80;;
17570;SDS011;8903;52.220;20.978;2024-03-25T01:11:02;14.10;;;11.10;;
17570;SDS011;8903;52.220;20.978;2024-03-25T01:13:38;17.10;;;12.07;;
17570;SDS011;8903;52.220;20.978;2024-03-25T01:16:06;17.37;;;11.90;;
17570;SDS011;8903;52.220;20.978;2024-03-25T01:18:33;17.40;;;11.33;;
17570;SDS011;8903;52.220;20.978;2024-03-25T01:20:58;17.87;;;12.13;;
17570;SDS011;8903;52.220;20.978;2024-03-25T01:23:24;20.90;;;13.37;;
17570;SDS011;8903;52.220;20.978;2024-03-25T01:25:53;15.90;;;11.50;;
17570;SDS011;8903;52.220;20.978;2024-03-25T01:28:19;17.10;;;11.93;;
17570;SDS011;8903;52.220;20.978;2024-03-25T01:30:44;19.57;;;12.50;;
17570;SDS011;8903;52.220;20.978;2024-03-25T01:33:10;15.33;;;11.43;;
17570;SDS011;8903;52.220;20.978;2024-03-25T01:35:43;16.50;;;12.80;;
17570;SDS011;8903;52.220;20.978;2024-03-25T01:38:09;22.90;;;12.10;;
17570;SDS011;8903;52.220;20.978;2024-03-25T01:40:55;17.93;;;12.80;;
17570;SDS011;8903;52.220;20.978;2024-03-25T01:43:22;17.70;;;11.33;;
17570;SDS011;8903;52.220;20.978;2024-03-25T01:45:48;17.70;;;12.20;;
17570;SDS011;8903;52.220;20.978;2024-03-25T01:48:21;17.93;;;13.13;;
17570;SDS011;8903;52.220;20.978;2024-03-25T01:50:50;16.60;;;11.93;;
17570;SDS011;8903;52.220;20.978;2024-03-25T01:53:16;14.40;;;12.00;;
17570;SDS011;8903;52.220;20.978;2024-03-25T01:55:41;21.97;;;13.63;;
17570;SDS011;8903;52.220;20.978;2024-03-25T01:58:11;20.23;;;11.87;;
17570;SDS011;8903;52.220;20.978;2024-03-25T02:00:43;20.87;;;13.10;;
17570;SDS011;8903;52.220;20.978;2024-03-25T02:03:12;17.40;;;13.30;;
17570;SDS011;8903;52.220;20.978;2024-03-25T02:05:41;18.63;;;13.13;;
17570;SDS011;8903;52.220;20.978;2024-03-25T02:08:07;18.13;;;14.13;;
17570;SDS011;8903;52.220;20.978;2024-03-25T02:10:37;18.03;;;12.50;;
17570;SDS011;8903;52.220;20.978;2024-03-25T02:13:03;20.43;;;12.97;;
17570;SDS011;8903;52.220;20.978;2024-03-25T02:15:30;21.00;;;13.50;;
17570;SDS011;8903;52.220;20.978;2024-03-25T02:18:00;18.87;;;12.90;;
17570;SDS011;8903;52.220;20.978;2024-03-25T02:20:26;18.70;;;13.63;;
17570;SDS011;8903;52.220;20.978;2024-03-25T02:22:55;21.30;;;14.90;;
17570;SDS011;8903;52.220;20.978;2024-03-25T02:25:21;17.80;;;13.90;;
17570;SDS011;8903;52.220;20.978;2024-03-25T02:27:49;18.40;;;12.37;;
17570;SDS011;8903;52.220;20.978;2024-03-25T02:30:21;22.30;;;14.83;;
17570;SDS011;8903;52.220;20.978;2024-03-25T02:32:47;19.63;;;13.80;;
17570;SDS011;8903;52.220;20.978;2024-03-25T02:35:15;25.17;;;13.33;;
17570;SDS011;8903;52.220;20.978;2024-03-25T02:37:42;19.10;;;14.17;;
17570;SDS011;8903;52.220;20.978;2024-03-25T02:40:08;20.17;;;13.80;;
17570;SDS011;8903;52.220;20.978;2024-03-25T02:42:35;21.80;;;14.30;;
17570;SDS011;8903;52.220;20.978;2024-03-25T02:45:05;18.57;;;14.23;;
17570;SDS011;8903;52.220;20.978;2024-03-25T02:47:34;18.40;;;12.93;;
17570;SDS011;8903;52.220;20.978;2024-03-25T02:50:03;17.53;;;13.63;;
17570;SDS011;8903;52.220;20.978;2024-03-25T02:52:32;17.83;;;13.87;;
17570;SDS011;8903;52.220;20.978;2024-03-25T02:55:01;16.77;;;12.60;;
17570;SDS011;8903;52.220;20.978;2024-03-25T02:57:30;20.43;;;14.50;;
17570;SDS011;8903;52.220;20.978;2024-03-25T02:59:56;20.57;;;13.67;;
17570;SDS011;8903;52.220;20.978;2024-03-25T03:02:21;20.20;;;13.30;;
17570;SDS011;8903;52.220;20.978;2024-03-25T03:04:53;19.70;;;12.67;;
17570;SDS011;8903;52.220;20.978;2024-03-25T03:07:19;19.10;;;12.83;;
17570;SDS011;8903;52.220;20.978;2024-03-25T03:09:48;17.13;;;12.07;;
17570;SDS011;8903;52.220;20.978;2024-03-25T03:12:14;16.60;;;13.30;;
17570;SDS011;8903;52.220;20.978;2024-03-25T03:14:43;20.00;;;13.70;;
17570;SDS011;8903;52.220;20.978;2024-03-25T03:17:08;22.17;;;14.00;;
17570;SDS011;8903;52.220;20.978;2024-03-25T03:19:34;19.97;;;13.63;;
17570;SDS011;8903;52.220;20.978;2024-03-25T03:22:01;17.50;;;14.00;;
17570;SDS011;8903;52.220;20.978;2024-03-25T03:24:27;20.17;;;14.30;;
17570;SDS011;8903;52.220;20.978;2024-03-25T03:26:54;17.93;;;13.67;;
17570;SDS011;8903;52.220;20.978;2024-03-25T03:29:19;18.47;;;13.73;;
17570;SDS011;8903;52.220;20.978;2024-03-25T03:31:48;21.97;;;14.13;;
17570;SDS011;8903;52.220;20.978;2024-03-25T03:34:14;16.73;;;12.70;;
17570;SDS011;8903;52.220;20.978;2024-03-25T03:36:42;18.90;;;14.17;;
17570;SDS011;8903;52.220;20.978;2024-03-25T03:39:08;25.87;;;13.70;;
17570;SDS011;8903;52.220;20.978;2024-03-25T03:41:34;19.00;;;14.13;;
17570;SDS011;8903;52.220;20.978;2024-03-25T03:44:01;18.57;;;14.10;;
17570;SDS011;8903;52.220;20.978;2024-03-25T03:46:30;20.00;;;13.60;;
17570;SDS011;8903;52.220;20.978;2024-03-25T03:48:56;19.60;;;14.17;;
17570;SDS011;8903;52.220;20.978;2024-03-25T03:51:24;20.33;;;13.00;;
17570;SDS011;8903;52.220;20.978;2024-03-25T03:53:50;19.13;;;12.27;;
17570;SDS011;8903;52.220;20.978;2024-03-25T03:56:16;19.83;;;12.43;;
17570;SDS011;8903;52.220;20.978;2024-03-25T03:58:42;18.37;;;13.00;;
17570;SDS011;8903;52.220;20.978;2024-03-25T04:01:17;18.77;;;12.50;;
17570;SDS011;8903;52.220;20.978;2024-03-25T04:03:45;19.30;;;13.13;;
17570;SDS011;8903;52.220;20.978;2024-03-25T04:06:14;17.73;;;12.83;;
17570;SDS011;8903;52.220;20.978;2024-03-25T04:08:40;20.10;;;13.77;;
17570;SDS011;8903;52.220;20.978;2024-03-25T04:11:12;19.00;;;13.20;;
17570;SDS011;8903;52.220;20.978;2024-03-25T04:13:38;15.00;;;12.87;;
17570;SDS011;8903;52.220;20.978;2024-03-25T04:16:13;22.57;;;12.90;;
17570;SDS011;8903;52.220;20.978;2024-03-25T04:18:51;20.93;;;13.23;;
17570;SDS011;8903;52.220;20.978;2024-03-25T04:21:20;21.27;;;13.50;;
17570;SDS011;8903;52.220;20.978;2024-03-25T04:23:49;20.90;;;14.00;;
17570;SDS011;8903;52.220;20.978;2024-03-25T04:26:17;19.53;;;13.30;;
17570;SDS011;8903;52.220;20.978;2024-03-25T04:28:46;20.10;;;13.90;;
17570;SDS011;8903;52.220;20.978;2024-03-25T04:31:12;26.63;;;13.63;;
17570;SDS011;8903;52.220;20.978;2024-03-25T04:33:38;20.50;;;13.37;;
17570;SDS011;8903;52.220;20.978;2024-03-25T04:36:10;21.93;;;14.07;;
17570;SDS011;8903;52.220;20.978;2024-03-25T04:38:35;23.50;;;13.87;;
17570;SDS011;8903;52.220;20.978;2024-03-25T04:41:07;14.43;;;12.13;;
17570;SDS011;8903;52.220;20.978;2024-03-25T04:43:33;22.73;;;13.93;;
17570;SDS011;8903;52.220;20.978;2024-03-25T04:46:02;18.57;;;13.40;;
17570;SDS011;8903;52.220;20.978;2024-03-25T04:48:31;17.47;;;13.07;;
17570;SDS011;8903;52.220;20.978;2024-03-25T04:50:59;16.40;;;12.70;;
17570;SDS011;8903;52.220;20.978;2024-03-25T04:53:25;20.50;;;13.60;;
17570;SDS011;8903;52.220;20.978;2024-03-25T04:55:51;21.53;;;14.00;;
17570;SDS011;8903;52.220;20.978;2024-03-25T04:58:17;19.53;;;14.03;;
17570;SDS011;8903;52.220;20.978;2024-03-25T05:00:42;19.77;;;12.80;;
17570;SDS011;8903;52.220;20.978;2024-03-25T05:03:08;17.90;;;12.40;;
17570;SDS011;8903;52.220;20.978;2024-03-25T05:05:37;19.27;;;13.30;;
17570;SDS011;8903;52.220;20.978;2024-03-25T05:08:02;17.80;;;12.70;;
17570;SDS011;8903;52.220;20.978;2024-03-25T05:10:28;16.53;;;12.40;;
17570;SDS011;8903;52.220;20.978;2024-03-25T05:12:57;17.33;;;13.27;;
17570;SDS011;8903;52.220;20.978;2024-03-25T05:15:23;16.40;;;12.60;;
17570;SDS011;8903;52.220;20.978;2024-03-25T05:17:54;18.40;;;13.40;;
17570;SDS011;8903;52.220;20.978;2024-03-25T05:20:23;18.77;;;14.20;;
17570;SDS011;8903;52.220;20.978;2024-03-25T05:22:49;21.87;;;14.33;;
17570;SDS011;8903;52.220;20.978;2024-03-25T05:25:15;18.67;;;13.40;;
17570;SDS011;8903;52.220;20.978;2024-03-25T05:27:40;21.10;;;13.27;;
17570;SDS011;8903;52.220;20.978;2024-03-25T05:30:09;17.57;;;12.93;;
17570;SDS011;8903;52.220;20.978;2024-03-25T05:32:35;33.87;;;13.03;;
17570;SDS011;8903;52.220;20.978;2024-03-25T05:35:04;19.90;;;13.57;;
17570;SDS011;8903;52.220;20.978;2024-03-25T05:37:40;20.13;;;12.60;;
17570;SDS011;8903;52.220;20.978;2024-03-25T05:40:12;26.40;;;14.43;;
17570;SDS011;8903;52.220;20.978;2024-03-25T05:42:37;17.97;;;12.40;;
17570;SDS011;8903;52.220;20.978;2024-03-25T05:45:03;23.10;;;14.10;;
17570;SDS011;8903;52.220;20.978;2024-03-25T05:47:29;19.20;;;13.67;;
17570;SDS011;8903;52.220;20.978;2024-03-25T05:49:58;17.53;;;13.47;;
17570;SDS011;8903;52.220;20.978;2024-03-25T05:52:28;16.23;;;12.43;;
17570;SDS011;8903;52.220;20.978;2024-03-25T05:54:54;17.10;;;12.00;;
17570;SDS011;8903;52.220;20.978;2024-03-25T05:57:20;18.93;;;13.43;;
17570;SDS011;8903;52.220;20.978;2024-03-25T05:59:51;17.47;;;12.07;;
17570;SDS011;8903;52.220;20.978;2024-03-25T06:02:17;18.53;;;12.40;;
17570;SDS011;8903;52.220;20.978;2024-03-25T06:04:51;17.30;;;11.50;;
17570;SDS011;8903;52.220;20.978;2024-03-25T06:07:27;20.70;;;12.83;;
17570;SDS011;8903;52.220;20.978;2024-03-25T06:09:53;20.10;;;12.77;;
17570;SDS011;8903;52.220;20.978;2024-03-25T06:12:22;19.83;;;12.33;;
17570;SDS011;8903;52.220;20.978;2024-03-25T06:14:47;14.10;;;11.93;;
17570;SDS011;8903;52.220;20.978;2024-03-25T06:17:18;17.00;;;10.90;;
17570;SDS011;8903;52.220;20.978;2024-03-25T06:19:44;15.73;;;11.57;;
17570;SDS011;8903;52.220;20.978;2024-03-25T06:22:09;16.83;;;11.97;;
17570;SDS011;8903;52.220;20.978;2024-03-25T06:24:38;18.37;;;10.20;;
17570;SDS011;8903;52.220;20.978;2024-03-25T06:27:04;11.80;;;9.63;;
17570;SDS011;8903;52.220;20.978;2024-03-25T06:29:30;15.27;;;10.10;;
17570;SDS011;8903;52.220;20.978;2024-03-25T06:31:56;13.57;;;10.57;;
17570;SDS011;8903;52.220;20.978;2024-03-25T06:34:40;14.30;;;10.30;;
17570;SDS011;8903;52.220;20.978;2024-03-25T06:37:10;15.80;;;11.90;;
17570;SDS011;8903;52.220;20.978;2024-03-25T06:39:36;14.80;;;10.40;;
17570;SDS011;8903;52.220;20.978;2024-03-25T06:42:04;15.80;;;11.13;;
17570;SDS011;8903;52.220;20.978;2024-03-25T06:44:30;16.37;;;10.60;;
17570;SDS011;8903;52.220;20.978;2024-03-25T06:47:02;13.40;;;10.33;;
17570;SDS011;8903;52.220;20.978;2024-03-25T06:49:30;17.03;;;11.00;;
17570;SDS011;8903;52.220;20.978;2024-03-25T06:51:56;18.80;;;10.67;;
17570;SDS011;8903;52.220;20.978;2024-03-25T06:54:22;17.50;;;11.30;;
17570;SDS011;8903;52.220;20.978;2024-03-25T06:56:48;22.00;;;11.00;;
17570;SDS011;8903;52.220;20.978;2024-03-25T06:59:17;13.73;;;10.37;;
17570;SDS011;8903;52.220;20.978;2024-03-25T07:01:42;16.80;;;11.40;;
17570;SDS011;8903;52.220;20.978;2024-03-25T07:04:08;15.93;;;11.30;;
17570;SDS011;8903;52.220;20.978;2024-03-25T07:06:36;17.73;;;11.80;;
17570;SDS011;8903;52.220;20.978;2024-03-25T07:09:04;15.00;;;10.30;;
17570;SDS011;8903;52.220;20.978;2024-03-25T07:11:30;12.33;;;9.97;;
17570;SDS011;8903;52.220;20.978;2024-03-25T07:13:59;15.23;;;11.10;;
17570;SDS011;8903;52.220;20.978;2024-03-25T07:16:25;12.67;;;9.50;;
17570;SDS011;8903;52.220;20.978;2024-03-25T07:18:54;17.90;;;11.07;;
17570;SDS011;8903;52.220;20.978;2024-03-25T07:21:20;11.93;;;9.23;;
17570;SDS011;8903;52.220;20.978;2024-03-25T07:23:46;16.07;;;10.43;;
17570;SDS011;8903;52.220;20.978;2024-03-25T07:26:15;21.03;;;11.10;;
17570;SDS011;8903;52.220;20.978;2024-03-25T07:28:41;12.23;;;10.43;;
17570;SDS011;8903;52.220;20.978;2024-03-25T07:31:09;15.47;;;10.30;;
17570;SDS011;8903;52.220;20.978;2024-03-25T07:33:35;15.03;;;9.20;;
17570;SDS011;8903;52.220;20.978;2024-03-25T07:36:01;13.43;;;10.10;;
17570;SDS011;8903;52.220;20.978;2024-03-25T07:38:30;14.90;;;9.80;;
17570;SDS011;8903;52.220;20.978;2024-03-25T07:41:03;11.53;;;8.90;;
17570;SDS011;8903;52.220;20.978;2024-03-25T07:43:29;18.37;;;8.17;;
17570;SDS011;8903;52.220;20.978;2024-03-25T07:46:07;14.40;;;9.00;;
17570;SDS011;8903;52.220;20.978;2024-03-25T07:48:33;24.00;;;10.70;;
17570;SDS011;8903;52.220;20.978;2024-03-25T07:51:01;11.00;;;8.27;;
17570;SDS011;8903;52.220;20.978;2024-03-25T07:53:36;11.77;;;8.07;;
17570;SDS011;8903;52.220;20.978;2024-03-25T07:56:03;12.10;;;8.50;;
17570;SDS011;8903;52.220;20.978;2024-03-25T07:58:30;14.30;;;8.57;;
17570;SDS011;8903;52.220;20.978;2024-03-25T08:00:56;9.60;;;7.97;;
17570;SDS011;8903;52.220;20.978;2024-03-25T08:03:22;11.87;;;7.90;;
17570;SDS011;8903;52.220;20.978;2024-03-25T08:05:50;10.10;;;8.50;;
17570;SDS011;8903;52.220;20.978;2024-03-25T08:08:16;11.97;;;8.40;;
17570;SDS011;8903;52.220;20.978;2024-03-25T08:10:42;13.70;;;8.87;;
17570;SDS011;8903;52.220;20.978;2024-03-25T08:13:10;12.30;;;9.00;;
17570;SDS011;8903;52.220;20.978;2024-03-25T08:15:36;10.23;;;7.80;;
17570;SDS011;8903;52.220;20.978;2024-03-25T08:18:02;11.43;;;8.43;;
17570;SDS011;8903;52.220;20.978;2024-03-25T08:20:28;9.20;;;7.00;;
17570;SDS011;8903;52.220;20.978;2024-03-25T08:22:54;13.67;;;8.17;;
17570;SDS011;8903;52.220;20.978;2024-03-25T08:25:19;38.80;;;11.03;;
17570;SDS011;8903;52.220;20.978;2024-03-25T08:27:45;9.53;;;6.53;;
17570;SDS011;8903;52.220;20.978;2024-03-25T08:30:11;12.93;;;6.97;;
17570;SDS011;8903;52.220;20.978;2024-03-25T08:32:37;9.93;;;7.93;;
17570;SDS011;8903;52.220;20.978;2024-03-25T08:35:02;6.90;;;6.13;;
17570;SDS011;8903;52.220;20.978;2024-03-25T08:37:28;7.13;;;6.43;;
17570;SDS011;8903;52.220;20.978;2024-03-25T08:39:57;8.33;;;7.17;;
17570;SDS011;8903;52.220;20.978;2024-03-25T08:42:23;11.80;;;7.03;;
17570;SDS011;8903;52.220;20.978;2024-03-25T08:44:48;12.47;;;6.83;;
17570;SDS011;8903;52.220;20.978;2024-03-25T08:47:14;8.53;;;5.90;;
17570;SDS011;8903;52.220;20.978;2024-03-25T08:49:40;11.83;;;7.13;;
17570;SDS011;8903;52.220;20.978;2024-03-25T08:52:06;9.60;;;7.20;;
17570;SDS011;8903;52.220;20.978;2024-03-25T08:54:32;9.07;;;7.10;;
17570;SDS011;8903;52.220;20.978;2024-03-25T08:56:57;9.47;;;7.60;;
17570;SDS011;8903;52.220;20.978;2024-03-25T08:59:23;9.07;;;8.10;;
17570;SDS011;8903;52.220;20.978;2024-03-25T09:01:49;16.97;;;9.50;;
17570;SDS011;8903;52.220;20.978;2024-03-25T09:04:14;11.13;;;7.67;;
17570;SDS011;8903;52.220;20.978;2024-03-25T09:06:40;13.50;;;8.00;;
17570;SDS011;8903;52.220;20.978;2024-03-25T09:09:06;10.20;;;6.80;;
17570;SDS011;8903;52.220;20.978;2024-03-25T09:11:50;7.67;;;6.80;;
17570;SDS011;8903;52.220;20.978;2024-03-25T09:14:16;8.67;;;6.77;;
17570;SDS011;8903;52.220;20.978;2024-03-25T09:16:42;8.00;;;6.90;;
17570;SDS011;8903;52.220;20.978;2024-03-25T09:19:08;13.07;;;6.50;;
17570;SDS011;8903;52.220;20.978;2024-03-25T09:21:34;7.50;;;5.80;;
17570;SDS011;8903;52.220;20.978;2024-03-25T09:24:00;6.97;;;6.10;;
17570;SDS011;8903;52.220;20.978;2024-03-25T09:26:25;12.70;;;6.27;;
17570;SDS011;8903;52.220;20.978;2024-03-25T09:28:51;9.33;;;5.47;;
17570;SDS011;8903;52.220;20.978;2024-03-25T09:31:17;11.73;;;5.37;;
17570;SDS011;8903;52.220;20.978;2024-03-25T09:33:45;7.10;;;6.00;;
17570;SDS011;8903;52.220;20.978;2024-03-25T09:36:11;7.57;;;5.00;;
17570;SDS011;8903;52.220;20.978;2024-03-25T09:38:38;8.93;;;7.20;;
17570;SDS011;8903;52.220;20.978;2024-03-25T09:41:04;6.37;;;5.40;;
17570;SDS011;8903;52.220;20.978;2024-03-25T09:43:33;8.90;;;5.80;;
17570;SDS011;8903;52.220;20.978;2024-03-25T09:46:08;8.90;;;4.70;;
17570;SDS011;8903;52.220;20.978;2024-03-25T09:48:34;7.03;;;5.33;;
17570;SDS011;8903;52.220;20.978;2024-03-25T09:51:05;5.27;;;4.70;;
17570;SDS011;8903;52.220;20.978;2024-03-25T09:53:30;5.17;;;4.57;;
17570;SDS011;8903;52.220;20.978;2024-03-25T09:55:56;5.60;;;4.70;;
17570;SDS011;8903;52.220;20.978;2024-03-25T09:58:24;6.47;;;5.60;;
17570;SDS011;8903;52.220;20.978;2024-03-25T10:00:51;7.60;;;4.70;;
17570;SDS011;8903;52.220;20.978;2024-03-25T10:03:17;6.20;;;4.70;;
17570;SDS011;8903;52.220;20.978;2024-03-25T10:05:43;7.77;;;4.00;;
17570;SDS011;8903;52.220;20.978;2024-03-25T10:08:09;4.77;;;4.30;;
17570;SDS011;8903;52.220;20.978;2024-03-25T10:10:35;9.57;;;5.07;;
17570;SDS011;8903;52.220;20.978;2024-03-25T10:13:03;5.83;;;4.30;;
17570;SDS011;8903;52.220;20.978;2024-03-25T10:15:32;6.47;;;4.40;;
17570;SDS011;8903;52.220;20.978;2024-03-25T10:17:58;4.47;;;4.00;;
17570;SDS011;8903;52.220;20.978;2024-03-25T10:20:23;5.40;;;4.60;;
17570;SDS011;8903;52.220;20.978;2024-03-25T10:22:50;5.60;;;4.10;;
17570;SDS011;8903;52.220;20.978;2024-03-25T10:25:23;7.73;;;5.20;;
17570;SDS011;8903;52.220;20.978;2024-03-25T10:27:53;7.57;;;4.47;;
17570;SDS011;8903;52.220;20.978;2024-03-25T10:30:23;5.50;;;4.73;;
17570;SDS011;8903;52.220;20.978;2024-03-25T10:33:02;10.60;;;5.07;;
17570;SDS011;8903;52.220;20.978;2024-03-25T10:35:32;6.30;;;4.80;;
17570;SDS011;8903;52.220;20.978;2024-03-25T10:40:43;5.93;;;5.30;;
17570;SDS011;8903;52.220;20.978;2024-03-25T10:43:11;9.80;;;5.20;;
17570;SDS011;8903;52.220;20.978;2024-03-25T10:45:40;5.17;;;4.67;;
17570;SDS011;8903;52.220;20.978;2024-03-25T10:48:31;7.27;;;4.37;;
17570;SDS011;8903;52.220;20.978;2024-03-25T10:51:02;5.30;;;3.60;;
17570;SDS011;8903;52.220;20.978;2024-03-25T10:53:32;6.30;;;4.00;;
17570;SDS011;8903;52.220;20.978;2024-03-25T10:56:00;5.53;;;4.43;;
17570;SDS011;8903;52.220;20.978;2024-03-25T10:58:27;6.63;;;3.60;;
17570;SDS011;8903;52.220;20.978;2024-03-25T11:00:54;3.60;;;3.30;;
17570;SDS011;8903;52.220;20.978;2024-03-25T11:03:24;3.77;;;3.43;;
17570;SDS011;8903;52.220;20.978;2024-03-25T11:05:54;3.90;;;3.30;;
17570;SDS011;8903;52.220;20.978;2024-03-25T11:08:30;5.37;;;3.50;;
17570;SDS011;8903;52.220;20.978;2024-03-25T11:10:59;4.40;;;3.37;;
17570;SDS011;8903;52.220;20.978;2024-03-25T11:13:26;3.87;;;3.20;;
17570;SDS011;8903;52.220;20.978;2024-03-25T11:15:56;4.23;;;3.67;;
17570;SDS011;8903;52.220;20.978;2024-03-25T11:18:24;3.93;;;3.33;;
17570;SDS011;8903;52.220;20.978;2024-03-25T11:21:04;5.13;;;3.30;;
17570;SDS011;8903;52.220;20.978;2024-03-25T11:23:41;4.10;;;3.70;;
17570;SDS011;8903;52.220;20.978;2024-03-25T11:26:19;4.73;;;4.27;;
17570;SDS011;8903;52.220;20.978;2024-03-25T11:28:48;5.53;;;4.53;;
17570;SDS011;8903;52.220;20.978;2024-03-25T11:31:14;6.83;;;3.90;;
17570;SDS011;8903;52.220;20.978;2024-03-25T11:33:41;4.20;;;3.60;;
17570;SDS011;8903;52.220;20.978;2024-03-25T11:36:07;7.57;;;4.50;;
17570;SDS011;8903;52.220;20.978;2024-03-25T11:38:34;4.33;;;3.93;;
17570;SDS011;8903;52.220;20.978;2024-03-25T11:41:01;5.63;;;3.70;;
17570;SDS011;8903;52.220;20.978;2024-03-25T11:43:27;5.27;;;4.53;;
17570;SDS011;8903;52.220;20.978;2024-03-25T11:45:53;3.90;;;3.47;;
17570;SDS011;8903;52.220;20.978;2024-03-25T11:48:19;4.20;;;3.80;;
17570;SDS011;8903;52.220;20.978;2024-03-25T11:50:48;6.43;;;4.47;;
17570;SDS011;8903;52.220;20.978;2024-03-25T11:53:17;7.47;;;3.40;;
17570;SDS011;8903;52.220;20.978;2024-03-25T11:55:46;3.03;;;2.73;;
17570;SDS011;8903;52.220;20.978;2024-03-25T11:58:13;3.73;;;3.30;;
17570;SDS011;8903;52.220;20.978;2024-03-25T12:00:46;4.00;;;3.10;;
17570;SDS011;8903;52.220;20.978;2024-03-25T12:03:17;5.13;;;3.30;;
17570;SDS011;8903;52.220;20.978;2024-03-25T12:05:44;3.80;;;3.37;;
17570;SDS011;8903;52.220;20.978;2024-03-25T12:08:10;2.83;;;2.53;;
17570;SDS011;8903;52.220;20.978;2024-03-25T12:10:37;4.53;;;3.50;;
17570;SDS011;8903;52.220;20.978;2024-03-25T12:13:23;7.73;;;3.00;;
17570;SDS011;8903;52.220;20.978;2024-03-25T12:15:50;5.37;;;3.60;;
17570;SDS011;8903;52.220;20.978;2024-03-25T12:18:16;4.77;;;3.10;;
17570;SDS011;8903;52.220;20.978;2024-03-25T12:20:46;3.83;;;3.53;;
17570;SDS011;8903;52.220;20.978;2024-03-25T12:23:13;3.30;;;3.00;;
17570;SDS011;8903;52.220;20.978;2024-03-25T12:25:39;6.73;;;3.80;;
17570;SDS011;8903;52.220;20.978;2024-03-25T12:28:09;6.53;;;3.00;;
17570;SDS011;8903;52.220;20.978;2024-03-25T12:30:48;3.53;;;3.23;;
17570;SDS011;8903;52.220;20.978;2024-03-25T12:33:18;5.27;;;3.40;;
17570;SDS011;8903;52.220;20.978;2024-03-25T12:35:47;12.33;;;3.43;;
17570;SDS011;8903;52.220;20.978;2024-03-25T12:38:27;4.70;;;3.77;;
17570;SDS011;8903;52.220;20.978;2024-03-25T12:41:09;4.23;;;3.40;;
17570;SDS011;8903;52.220;20.978;2024-03-25T12:43:37;4.30;;;3.90;;
17570;SDS011;8903;52.220;20.978;2024-03-25T12:46:11;5.10;;;3.77;;
17570;SDS011;8903;52.220;20.978;2024-03-25T12:48:37;3.47;;;3.17;;
17570;SDS011;8903;52.220;20.978;2024-03-25T12:51:06;6.77;;;5.33;;
17570;SDS011;8903;52.220;20.978;2024-03-25T12:53:36;7.40;;;6.30;;
17570;SDS011;8903;52.220;20.978;2024-03-25T12:56:02;7.90;;;7.03;;
17570;SDS011;8903;52.220;20.978;2024-03-25T12:58:28;9.67;;;8.67;;
17570;SDS011;8903;52.220;20.978;2024-03-25T13:00:54;9.50;;;7.93;;
17570;SDS011;8903;52.220;20.978;2024-03-25T13:03:20;9.40;;;8.07;;
17570;SDS011;8903;52.220;20.978;2024-03-25T13:05:46;13.13;;;8.60;;
17570;SDS011;8903;52.220;20.978;2024-03-25T13:08:12;9.23;;;8.27;;
17570;SDS011;8903;52.220;20.978;2024-03-25T13:10:42;8.97;;;8.13;;
17570;SDS011;8903;52.220;20.978;2024-03-25T13:13:09;8.13;;;7.43;;
17570;SDS011;8903;52.220;20.978;2024-03-25T13:15:38;7.73;;;6.93;;
17570;SDS011;8903;52.220;20.978;2024-03-25T13:18:04;9.67;;;7.47;;
17570;SDS011;8903;52.220;20.978;2024-03-25T13:20:30;11.53;;;6.73;;
17570;SDS011;8903;52.220;20.978;2024-03-25T13:22:56;10.90;;;7.10;;
17570;SDS011;8903;52.220;20.978;2024-03-25T13:25:24;7.37;;;6.53;;
17570;SDS011;8903;52.220;20.978;2024-03-25T13:27:52;8.23;;;7.00;;
17570;SDS011;8903;52.220;20.978;2024-03-25T13:30:18;7.73;;;6.90;;
17570;SDS011;8903;52.220;20.978;2024-03-25T13:32:53;11.80;;;7.00;;
17570;SDS011;8903;52.220;20.978;2024-03-25T13:35:20;7.60;;;6.77;;
17570;SDS011;8903;52.220;20.978;2024-03-25T13:37:45;13.77;;;7.03;;
17570;SDS011;8903;52.220;20.978;2024-03-25T13:40:11;5.87;;;5.23;;
17570;SDS011;8903;52.220;20.978;2024-03-25T13:42:37;5.80;;;5.20;;
17570;SDS011;8903;52.220;20.978;2024-03-25T13:45:04;6.60;;;5.23;;
17570;SDS011;8903;52.220;20.978;2024-03-25T13:47:33;9.20;;;6.37;;
17570;SDS011;8903;52.220;20.978;2024-03-25T13:50:03;8.87;;;6.80;;
17570;SDS011;8903;52.220;20.978;2024-03-25T13:52:29;7.10;;;6.43;;
17570;SDS011;8903;52.220;20.978;2024-03-25T13:54:56;7.50;;;6.70;;
17570;SDS011;8903;52.220;20.978;2024-03-25T13:57:21;7.10;;;6.50;;
17570;SDS011;8903;52.220;20.978;2024-03-25T13:59:48;9.60;;;6.07;;
17570;SDS011;8903;52.220;20.978;2024-03-25T14:02:18;6.60;;;6.00;;
17570;SDS011;8903;52.220;20.978;2024-03-25T14:04:44;8.03;;;6.27;;
17570;SDS011;8903;52.220;20.978;2024-03-25T14:07:10;9.90;;;6.00;;
17570;SDS011;8903;52.220;20.978;2024-03-25T14:09:37;11.70;;;8.00;;
17570;SDS011;8903;52.220;20.978;2024-03-25T14:12:02;7.20;;;6.47;;
17570;SDS011;8903;52.220;20.978;2024-03-25T14:14:29;7.50;;;6.50;;
17570;SDS011;8903;52.220;20.978;2024-03-25T14:16:58;7.17;;;6.47;;
17570;SDS011;8903;52.220;20.978;2024-03-25T14:19:29;6.57;;;6.07;;
17570;SDS011;8903;52.220;20.978;2024-03-25T14:21:55;7.67;;;6.07;;
17570;SDS011;8903;52.220;20.978;2024-03-25T14:24:21;8.90;;;5.80;;
17570;SDS011;8903;52.220;20.978;2024-03-25T14:26:47;6.60;;;5.83;;
17570;SDS011;8903;52.220;20.978;2024-03-25T14:29:13;9.07;;;5.23;;
17570;SDS011;8903;52.220;20.978;2024-03-25T14:31:42;6.90;;;5.60;;
17570;SDS011;8903;52.220;20.978;2024-03-25T14:34:08;12.47;;;5.60;;
17570;SDS011;8903;52.220;20.978;2024-03-25T14:36:34;11.73;;;5.90;;
17570;SDS011;8903;52.220;20.978;2024-03-25T14:39:01;16.63;;;5.57;;
17570;SDS011;8903;52.220;20.978;2024-03-25T14:41:26;8.20;;;4.97;;